createdAt,value
2018-12-11T00:01:55.816Z,9.73
2018-12-11T00:04:28.755Z,15.20
2018-12-11T00:07:00.806Z,11.60
2018-12-11T00:09:34.781Z,10.50
2018-12-11T00:12:05.517Z,8.47
2018-12-11T00:14:38.982Z,9.97
2018-12-11T00:17:10.041Z,9.93
2018-12-11T00:19:42.242Z,8.10
2018-12-11T00:22:14.243Z,9.53
2018-12-11T00:24:43.069Z,13.30
2018-12-11T00:27:11.872Z,9.30
2018-12-11T00:29:40.555Z,11.43
2018-12-11T00:32:09.181Z,12.80
2018-12-11T00:34:37.857Z,14.17
2018-12-11T00:37:06.564Z,11.63
2018-12-11T00:39:35.302Z,10.17
2018-12-11T00:42:04.039Z,12.80
2018-12-11T00:44:32.897Z,6.43
2018-12-11T00:47:01.606Z,9.90
2018-12-11T00:49:30.333Z,10.23
2018-12-11T00:51:59.007Z,7.50
2018-12-11T00:54:27.666Z,11.43
2018-12-11T00:56:56.373Z,11.30
2018-12-11T00:59:25.058Z,11.87
2018-12-11T01:01:53.780Z,10.60
2018-12-11T01:04:22.490Z,9.10
2018-12-11T01:06:51.241Z,13.60
2018-12-11T01:09:19.905Z,19.10
2018-12-11T01:11:48.613Z,11.33
2018-12-11T01:14:17.237Z,7.57
2018-12-11T01:16:46.037Z,14.13
2018-12-11T01:19:14.721Z,14.97
2018-12-11T01:21:43.358Z,15.17
2018-12-11T01:24:12.068Z,13.00
2018-12-11T01:26:40.803Z,18.17
2018-12-11T01:29:09.472Z,12.43
2018-12-11T01:31:38.198Z,13.20
2018-12-11T01:34:07.083Z,14.60
2018-12-11T01:36:35.767Z,11.17
2018-12-11T01:39:08.828Z,18.13
2018-12-11T01:41:37.534Z,13.20
2018-12-11T01:44:06.289Z,16.83
2018-12-11T01:46:35.029Z,11.47
2018-12-11T01:49:03.758Z,8.77
2018-12-11T01:51:32.411Z,11.87
2018-12-11T01:54:01.067Z,14.03
2018-12-11T01:56:29.852Z,11.70
2018-12-11T01:58:58.527Z,14.23
2018-12-11T02:01:27.243Z,15.00
2018-12-11T02:03:55.910Z,11.50
2018-12-11T02:06:24.608Z,14.43
2018-12-11T02:08:53.352Z,9.17
2018-12-11T02:11:22.016Z,15.87
2018-12-11T02:13:50.696Z,17.83
2018-12-11T02:16:19.342Z,16.53
2018-12-11T02:18:48.128Z,13.90
2018-12-11T02:21:16.805Z,16.60
2018-12-11T02:23:45.468Z,15.97
2018-12-11T02:26:14.189Z,12.10
2018-12-11T02:28:42.873Z,8.67
2018-12-11T02:31:11.583Z,16.53
2018-12-11T02:33:40.260Z,12.53
2018-12-11T02:36:08.976Z,14.67
2018-12-11T02:38:37.790Z,15.77
2018-12-11T02:41:06.609Z,17.27
2018-12-11T02:43:35.267Z,12.50
2018-12-11T02:46:03.980Z,12.90
2018-12-11T02:48:32.705Z,16.87
2018-12-11T02:51:01.394Z,16.93
2018-12-11T02:53:30.097Z,14.60
2018-12-11T02:55:58.738Z,11.37
2018-12-11T02:58:27.413Z,9.87
2018-12-11T03:00:56.047Z,14.70
2018-12-11T03:03:24.733Z,13.33
2018-12-11T03:05:53.453Z,20.13
2018-12-11T03:08:22.178Z,14.23
2018-12-11T03:10:50.903Z,13.30
2018-12-11T03:13:19.614Z,16.30
2018-12-11T03:15:48.276Z,13.03
2018-12-11T03:18:17.010Z,12.73
2018-12-11T03:20:45.798Z,14.07
2018-12-11T03:23:15.431Z,13.57
2018-12-11T03:25:44.091Z,16.10
2018-12-11T03:28:12.816Z,13.13
2018-12-11T03:30:41.459Z,11.60
2018-12-11T03:33:10.190Z,12.17
2018-12-11T03:35:38.881Z,21.03
2018-12-11T03:38:07.548Z,13.57
2018-12-11T03:40:36.254Z,18.10
2018-12-11T03:43:05.043Z,16.00
2018-12-11T03:45:33.792Z,18.70
2018-12-11T03:48:02.461Z,10.20
2018-12-11T03:50:31.255Z,14.67
2018-12-11T03:52:59.969Z,14.07
2018-12-11T03:55:28.702Z,11.43
2018-12-11T03:57:57.367Z,23.83
2018-12-11T04:00:26.104Z,10.97
2018-12-11T04:02:54.789Z,16.03
2018-12-11T04:05:23.510Z,17.47
2018-12-11T04:07:52.205Z,19.40
2018-12-11T04:10:20.930Z,15.13
2018-12-11T04:12:49.668Z,10.47
2018-12-11T04:15:18.416Z,14.97
2018-12-11T04:17:47.394Z,10.23
2018-12-11T04:20:16.157Z,16.90
2018-12-11T04:22:44.825Z,18.73
2018-12-11T04:25:13.480Z,7.30
2018-12-11T04:27:42.191Z,10.87
2018-12-11T04:30:10.985Z,10.43
2018-12-11T04:32:39.661Z,8.57
2018-12-11T04:35:08.437Z,22.90
2018-12-11T04:37:37.129Z,16.50
2018-12-11T04:40:06.264Z,11.93
2018-12-11T04:42:34.972Z,10.00
2018-12-11T04:45:03.915Z,14.77
2018-12-11T04:47:32.555Z,10.77
2018-12-11T04:50:01.225Z,16.97
2018-12-11T04:52:30.067Z,12.33
2018-12-11T04:54:58.762Z,10.53
2018-12-11T04:57:27.458Z,9.27
2018-12-11T04:59:56.172Z,12.90
2018-12-11T05:02:24.828Z,8.83
2018-12-11T05:04:53.631Z,11.13
2018-12-11T05:07:22.329Z,12.37
2018-12-11T05:09:50.970Z,15.70
2018-12-11T05:12:19.647Z,8.80
2018-12-11T05:14:48.293Z,17.67
2018-12-11T05:17:17.063Z,8.17
2018-12-11T05:19:45.761Z,12.33
2018-12-11T05:22:14.451Z,11.80
2018-12-11T05:24:43.127Z,16.10
2018-12-11T05:27:11.819Z,12.43
2018-12-11T05:29:40.458Z,11.60
2018-12-11T05:32:09.397Z,12.17
2018-12-11T05:34:38.073Z,6.13
2018-12-11T05:37:07.065Z,14.50
2018-12-11T05:39:35.746Z,14.90
2018-12-11T05:42:04.409Z,9.00
2018-12-11T05:44:33.106Z,14.40
2018-12-11T05:47:01.768Z,8.37
2018-12-11T05:49:30.445Z,9.07
2018-12-11T05:51:59.073Z,11.07
2018-12-11T05:54:27.763Z,10.63
2018-12-11T05:56:56.413Z,10.07
2018-12-11T05:59:25.072Z,16.07
2018-12-11T06:01:53.780Z,14.93
2018-12-11T06:04:22.489Z,8.57
2018-12-11T06:06:51.137Z,9.53
2018-12-11T06:09:19.823Z,13.23
2018-12-11T06:11:48.561Z,11.27
2018-12-11T06:14:17.277Z,10.53
2018-12-11T06:16:46.056Z,11.43
2018-12-11T06:19:14.964Z,10.30
2018-12-11T06:21:43.690Z,9.53
2018-12-11T06:24:12.335Z,10.53
2018-12-11T06:26:41.042Z,11.27
2018-12-11T06:29:09.671Z,12.73
2018-12-11T06:31:38.416Z,11.87
2018-12-11T06:34:07.093Z,8.13
2018-12-11T06:36:35.777Z,13.73
2018-12-11T06:39:06.717Z,9.73
2018-12-11T06:41:35.404Z,7.83
2018-12-11T06:44:04.245Z,11.77
2018-12-11T06:46:32.883Z,8.47
2018-12-11T06:49:01.582Z,10.27
2018-12-11T06:51:30.293Z,9.77
2018-12-11T06:53:58.924Z,9.67
2018-12-11T06:56:27.610Z,4.73
2018-12-11T06:58:56.254Z,9.57
2018-12-11T07:01:24.940Z,9.23
2018-12-11T07:03:53.794Z,8.03
2018-12-11T07:06:22.514Z,11.03
2018-12-11T07:08:51.210Z,7.27
2018-12-11T07:11:19.881Z,4.60
2018-12-11T07:13:48.522Z,8.17
2018-12-11T07:16:17.198Z,8.00
2018-12-11T07:18:45.944Z,6.53
2018-12-11T07:21:14.639Z,7.30
2018-12-11T07:23:43.311Z,5.93
2018-12-11T07:26:12.033Z,10.97
2018-12-11T07:28:40.749Z,8.40
2018-12-11T07:31:09.412Z,11.97
2018-12-11T07:33:38.039Z,6.53
2018-12-11T07:36:06.740Z,11.30
2018-12-11T07:38:35.521Z,5.77
2018-12-11T07:41:04.220Z,10.17
2018-12-11T07:43:32.929Z,10.33
2018-12-11T07:46:01.684Z,6.97
2018-12-11T07:48:30.474Z,8.80
2018-12-11T07:50:59.191Z,9.13
2018-12-11T07:53:27.892Z,3.87
2018-12-11T07:56:00.424Z,5.03
2018-12-11T07:58:28.441Z,3.90
2018-12-11T08:00:57.129Z,8.30
2018-12-11T08:03:25.761Z,5.30
2018-12-11T08:05:54.439Z,8.33
2018-12-11T08:08:23.110Z,6.63
2018-12-11T08:10:52.030Z,6.97
2018-12-11T08:13:20.701Z,4.73
2018-12-11T08:15:49.450Z,5.97
2018-12-11T08:18:18.251Z,6.07
2018-12-11T08:20:47.031Z,1.93
2018-12-11T08:23:16.187Z,6.40
2018-12-11T08:25:44.860Z,7.03
2018-12-11T08:28:14.453Z,4.00
2018-12-11T08:30:43.149Z,6.07
2018-12-11T08:33:11.861Z,3.67
2018-12-11T08:35:40.509Z,6.27
2018-12-11T08:38:09.219Z,6.17
2018-12-11T08:40:37.930Z,5.60
2018-12-11T08:43:06.635Z,7.80
2018-12-11T08:45:35.419Z,5.53
2018-12-11T08:48:04.080Z,2.77
2018-12-11T08:50:32.751Z,4.97
2018-12-11T08:53:01.488Z,5.83
2018-12-11T08:55:30.243Z,7.73
2018-12-11T08:57:58.949Z,4.00
2018-12-11T09:00:27.671Z,8.07
2018-12-11T09:02:56.383Z,3.53
2018-12-11T09:05:25.109Z,2.73
2018-12-11T09:07:53.795Z,4.60
2018-12-11T09:10:22.488Z,8.67
2018-12-11T09:12:51.170Z,2.60
2018-12-11T09:15:19.900Z,14.93
2018-12-11T09:17:48.631Z,4.30
2018-12-11T09:20:17.425Z,3.03
2018-12-11T09:22:46.165Z,5.37
2018-12-11T09:25:14.846Z,3.53
2018-12-11T09:27:43.623Z,3.50
2018-12-11T09:30:12.315Z,3.07
2018-12-11T09:32:40.998Z,7.57
2018-12-11T09:35:09.736Z,7.63
2018-12-11T09:37:38.403Z,5.33
2018-12-11T09:40:07.288Z,9.57
2018-12-11T09:42:36.088Z,4.07
2018-12-11T09:45:06.176Z,8.30
2018-12-11T09:47:34.899Z,9.80
2018-12-11T09:50:03.675Z,5.07
2018-12-11T09:52:32.432Z,4.70
2018-12-11T09:55:01.094Z,8.03
2018-12-11T09:57:29.798Z,2.67
2018-12-11T09:59:58.446Z,12.70
2018-12-11T10:02:27.320Z,4.40
2018-12-11T10:04:56.079Z,11.63
2018-12-11T10:07:24.855Z,4.33
2018-12-11T10:09:53.548Z,6.23
2018-12-11T10:12:22.229Z,13.43
2018-12-11T10:14:50.924Z,7.00
2018-12-11T10:17:19.647Z,5.03
2018-12-11T10:19:48.535Z,2.80
2018-12-11T10:22:17.232Z,7.43
2018-12-11T10:24:46.005Z,3.43
2018-12-11T10:27:14.842Z,5.17
2018-12-11T10:29:43.666Z,5.90
2018-12-11T10:32:12.349Z,3.57
2018-12-11T10:34:41.108Z,5.70
2018-12-11T10:37:09.789Z,6.73
2018-12-11T10:39:38.576Z,4.67
2018-12-11T10:42:07.248Z,7.27
2018-12-11T10:44:35.934Z,6.60
2018-12-11T10:47:04.921Z,4.20
2018-12-11T10:49:33.663Z,4.67
2018-12-11T10:52:02.400Z,3.10
2018-12-11T10:54:31.132Z,6.63
2018-12-11T10:56:59.898Z,8.80
2018-12-11T10:59:28.630Z,6.20
2018-12-11T11:01:59.322Z,4.50
2018-12-11T11:04:28.190Z,6.37
2018-12-11T11:06:56.869Z,5.53
2018-12-11T11:09:25.597Z,6.97
2018-12-11T11:11:54.341Z,3.90
2018-12-11T11:14:23.089Z,8.03
2018-12-11T11:16:51.796Z,7.67
2018-12-11T11:19:20.503Z,5.10
2018-12-11T11:21:49.213Z,5.57
2018-12-11T11:24:17.954Z,4.50
2018-12-11T11:26:46.668Z,4.03
2018-12-11T11:29:15.328Z,5.10
2018-12-11T11:31:44.520Z,5.07
2018-12-11T11:34:13.317Z,8.23
2018-12-11T11:36:42.143Z,11.63
2018-12-11T11:39:10.797Z,3.03
2018-12-11T11:41:39.489Z,3.03
2018-12-11T11:44:08.231Z,3.87
2018-12-11T11:46:36.888Z,6.43
2018-12-11T11:49:05.572Z,6.60
2018-12-11T11:51:34.309Z,5.63
2018-12-11T11:54:02.983Z,4.03
2018-12-11T11:56:31.731Z,5.27
2018-12-11T11:59:00.460Z,5.73
2018-12-11T12:01:29.104Z,6.67
2018-12-11T12:03:58.345Z,5.63
2018-12-11T12:06:27.094Z,4.60
2018-12-11T12:08:59.340Z,5.67
2018-12-11T12:11:38.874Z,5.03
2018-12-11T12:14:07.983Z,5.17
2018-12-11T12:16:41.602Z,4.40
2018-12-11T12:19:10.283Z,6.70
2018-12-11T12:21:39.065Z,5.10
2018-12-11T12:24:07.726Z,5.43
2018-12-11T12:26:36.444Z,5.50
2018-12-11T12:29:05.128Z,3.80
2018-12-11T12:31:34.113Z,3.30
2018-12-11T12:34:02.746Z,5.10
2018-12-11T12:36:31.456Z,9.97
2018-12-11T12:39:00.119Z,6.90
2018-12-11T12:41:28.871Z,5.63
2018-12-11T12:43:57.525Z,6.33
2018-12-11T12:46:26.285Z,2.33
2018-12-11T12:48:54.983Z,2.40
2018-12-11T12:51:23.701Z,4.00
2018-12-11T12:53:52.375Z,5.17
2018-12-11T12:56:21.032Z,4.83
2018-12-11T12:58:49.751Z,3.83
2018-12-11T13:01:18.384Z,9.57
2018-12-11T13:03:47.647Z,4.93
2018-12-11T13:06:16.315Z,7.87
2018-12-11T13:08:45.033Z,5.67
2018-12-11T13:11:13.691Z,4.10
2018-12-11T13:13:42.421Z,9.30
2018-12-11T13:16:11.101Z,5.90
2018-12-11T13:18:39.828Z,7.13
2018-12-11T13:21:08.516Z,6.03
2018-12-11T13:23:37.191Z,5.73
2018-12-11T13:26:05.891Z,3.00
2018-12-11T13:28:34.529Z,4.77
2018-12-11T13:31:03.237Z,2.57
2018-12-11T13:33:31.893Z,7.00
2018-12-11T13:36:00.582Z,6.53
2018-12-11T13:38:29.664Z,10.63
2018-12-11T13:40:58.737Z,3.27
2018-12-11T13:43:27.610Z,7.57
2018-12-11T13:45:56.513Z,4.80
2018-12-11T13:48:25.646Z,5.07
2018-12-11T13:50:54.675Z,3.33
2018-12-11T13:53:27.567Z,6.37
2018-12-11T13:55:56.904Z,8.40
2018-12-11T13:58:25.764Z,5.90
2018-12-11T14:00:54.711Z,2.47
2018-12-11T14:03:23.624Z,3.20
2018-12-11T14:05:52.435Z,4.90
2018-12-11T14:08:21.274Z,5.27
2018-12-11T14:10:50.293Z,3.27
2018-12-11T14:13:19.129Z,9.13
2018-12-11T14:15:48.102Z,5.83
2018-12-11T14:18:16.962Z,6.73
2018-12-11T14:20:45.845Z,6.03
2018-12-11T14:23:15.715Z,3.73
2018-12-11T14:25:44.628Z,4.10
2018-12-11T14:28:13.445Z,3.10
2018-12-11T14:30:43.031Z,3.87
2018-12-11T14:33:11.988Z,8.57
2018-12-11T14:35:41.392Z,5.97
2018-12-11T14:38:10.180Z,6.43
2018-12-11T14:40:39.092Z,4.33
2018-12-11T14:43:08.099Z,3.87
2018-12-11T14:45:43.771Z,6.63
2018-12-11T14:48:15.742Z,8.03
2018-12-11T14:50:44.999Z,5.33
2018-12-11T14:53:14.166Z,4.13
2018-12-11T14:55:43.343Z,3.80
2018-12-11T14:58:12.513Z,6.67
2018-12-11T15:00:41.687Z,4.73
2018-12-11T15:03:10.846Z,4.10
2018-12-11T15:05:40.217Z,6.30
2018-12-11T15:08:09.079Z,4.10
2018-12-11T15:10:38.445Z,4.23
2018-12-11T15:13:09.150Z,4.03
2018-12-11T15:15:39.136Z,3.20
2018-12-11T15:18:07.967Z,4.07
2018-12-11T15:20:36.819Z,4.57
2018-12-11T15:23:05.859Z,3.77
2018-12-11T15:25:34.847Z,3.43
2018-12-11T15:28:04.349Z,2.17
2018-12-11T15:30:33.136Z,4.73
2018-12-11T15:33:01.951Z,3.03
2018-12-11T15:35:30.767Z,3.43
2018-12-11T15:37:59.577Z,3.27
2018-12-11T15:40:28.257Z,5.27
2018-12-11T15:42:57.411Z,2.93
2018-12-11T15:45:26.191Z,4.03
2018-12-11T15:47:55.010Z,2.67
2018-12-11T15:50:24.050Z,4.17
2018-12-11T15:52:52.864Z,5.47
2018-12-11T15:55:21.638Z,2.33
2018-12-11T15:57:50.384Z,2.27
2018-12-11T16:00:19.202Z,1.20
2018-12-11T16:02:47.910Z,4.77
2018-12-11T16:05:16.752Z,1.70
2018-12-11T16:07:45.475Z,5.20
2018-12-11T16:10:14.412Z,4.90
2018-12-11T16:12:43.137Z,1.77
2018-12-11T16:15:12.025Z,4.10
2018-12-11T16:17:40.849Z,2.43
2018-12-11T16:20:09.656Z,5.83
2018-12-11T16:22:38.369Z,7.10
2018-12-11T16:25:07.355Z,6.67
2018-12-11T16:27:36.391Z,4.43
2018-12-11T16:30:05.977Z,4.33
2018-12-11T16:32:34.862Z,3.27
2018-12-11T16:35:04.081Z,4.77
2018-12-11T16:37:33.036Z,4.47
2018-12-11T16:40:04.587Z,3.30
2018-12-11T16:42:32.546Z,3.23
2018-12-11T16:45:01.228Z,7.23
2018-12-11T16:47:29.939Z,4.77
2018-12-11T16:49:58.625Z,5.83
2018-12-11T16:52:27.320Z,3.80
2018-12-11T16:54:55.968Z,3.53
2018-12-11T16:57:24.674Z,4.10
2018-12-11T16:59:53.339Z,2.60
2018-12-11T17:02:22.032Z,2.60
2018-12-11T17:04:50.656Z,3.70
2018-12-11T17:07:19.578Z,3.17
2018-12-11T17:09:48.387Z,3.60
2018-12-11T17:12:17.155Z,2.80
2018-12-11T17:14:45.808Z,1.73
2018-12-11T17:17:14.493Z,3.10
2018-12-11T17:19:43.221Z,7.80
2018-12-11T17:22:12.017Z,1.83
2018-12-11T17:24:40.706Z,2.73
2018-12-11T17:27:09.422Z,5.87
2018-12-11T17:29:38.106Z,3.23
2018-12-11T17:32:06.773Z,3.40
2018-12-11T17:34:35.508Z,2.70
2018-12-11T17:37:04.151Z,3.67
2018-12-11T17:39:32.874Z,3.73
2018-12-11T17:42:01.523Z,5.77
2018-12-11T17:44:30.265Z,3.20
2018-12-11T17:46:58.935Z,2.33
2018-12-11T17:49:27.660Z,3.17
2018-12-11T17:51:56.376Z,2.57
2018-12-11T17:54:25.106Z,4.40
2018-12-11T17:56:54.656Z,3.00
2018-12-11T17:59:23.328Z,3.53
2018-12-11T18:01:56.031Z,3.33
2018-12-11T18:04:24.707Z,5.67
2018-12-11T18:06:53.333Z,2.60
2018-12-11T18:09:22.945Z,2.63
2018-12-11T18:11:51.773Z,2.87
2018-12-11T18:14:20.509Z,2.60
2018-12-11T18:16:49.250Z,3.53
2018-12-11T18:19:18.629Z,2.73
2018-12-11T18:21:47.314Z,3.90
2018-12-11T18:24:16.032Z,4.23
2018-12-11T18:26:44.713Z,2.73
2018-12-11T18:29:13.344Z,2.40
2018-12-11T18:31:42.026Z,2.40
2018-12-11T18:34:11.369Z,4.33
2018-12-11T18:36:40.391Z,3.17
2018-12-11T18:39:09.731Z,3.60
2018-12-11T18:41:39.103Z,3.37
2018-12-11T18:44:07.817Z,5.43
2018-12-11T18:46:36.496Z,3.30
2018-12-11T18:49:05.376Z,2.50
2018-12-11T18:51:34.109Z,5.27
2018-12-11T18:54:02.760Z,5.57
2018-12-11T18:56:31.548Z,4.17
2018-12-11T18:59:00.608Z,3.97
2018-12-11T19:01:29.331Z,2.57
2018-12-11T19:03:58.011Z,3.47
2018-12-11T19:06:27.199Z,2.60
2018-12-11T19:08:55.845Z,3.20
2018-12-11T19:11:26.484Z,5.10
2018-12-11T19:13:55.294Z,5.53
2018-12-11T19:16:24.694Z,2.27
2018-12-11T19:18:53.636Z,3.13
2018-12-11T19:21:22.351Z,8.07
2018-12-11T19:23:58.878Z,4.40
2018-12-11T19:26:27.997Z,4.90
2018-12-11T19:28:56.806Z,2.67
2018-12-11T19:31:26.603Z,4.57
2018-12-11T19:33:55.388Z,3.03
2018-12-11T19:36:24.169Z,2.20
2018-12-11T19:38:52.930Z,2.80
2018-12-11T19:41:22.277Z,2.60
2018-12-11T19:43:51.049Z,2.97
2018-12-11T19:46:20.334Z,2.67
2018-12-11T19:48:49.781Z,4.07
2018-12-11T19:51:18.922Z,3.03
2018-12-11T19:53:47.884Z,4.33
2018-12-11T19:56:16.896Z,4.50
2018-12-11T19:58:45.846Z,2.80
2018-12-11T20:01:14.818Z,4.83
2018-12-11T20:03:43.676Z,3.10
2018-12-11T20:06:12.408Z,2.50
2018-12-11T20:08:41.209Z,2.87
2018-12-11T20:11:10.262Z,3.80
2018-12-11T20:13:39.087Z,2.97
2018-12-11T20:16:14.483Z,2.63
2018-12-11T20:18:43.443Z,2.67
2018-12-11T20:21:13.866Z,2.70
2018-12-11T20:23:42.827Z,5.37
2018-12-11T20:26:12.009Z,4.80
2018-12-11T20:28:41.978Z,2.60
2018-12-11T20:31:10.870Z,2.47
2018-12-11T20:33:39.810Z,2.77
2018-12-11T20:36:09.604Z,2.10
2018-12-11T20:38:38.404Z,2.47
2018-12-11T20:41:08.204Z,1.97
2018-12-11T20:43:37.063Z,5.40
2018-12-11T20:46:06.054Z,2.10
2018-12-11T20:48:35.061Z,3.30
2018-12-11T20:51:03.785Z,2.83
2018-12-11T20:53:32.525Z,1.87
2018-12-11T20:56:01.225Z,4.20
2018-12-11T20:58:30.064Z,1.53
2018-12-11T21:00:59.928Z,1.53
2018-12-11T21:03:28.742Z,2.40
2018-12-11T21:05:57.496Z,1.70
2018-12-11T21:08:28.272Z,2.27
2018-12-11T21:10:57.720Z,6.23
2018-12-11T21:13:28.174Z,4.00
2018-12-11T21:15:57.308Z,2.27
2018-12-11T21:18:26.147Z,1.67
2018-12-11T21:20:55.858Z,3.33
2018-12-11T21:23:24.592Z,1.97
2018-12-11T21:25:53.321Z,2.80
2018-12-11T21:28:22.076Z,8.27
2018-12-11T21:30:50.764Z,4.60
2018-12-11T21:33:19.589Z,5.63
2018-12-11T21:35:48.376Z,2.30
2018-12-11T21:38:17.869Z,2.23
2018-12-11T21:40:46.986Z,6.03
2018-12-11T21:43:15.804Z,4.33
2018-12-11T21:45:45.070Z,3.07
2018-12-11T21:48:13.738Z,5.47
2018-12-11T21:50:42.474Z,4.47
2018-12-11T21:53:11.135Z,4.87
2018-12-11T21:55:40.976Z,3.47
2018-12-11T21:58:09.629Z,6.87
2018-12-11T22:00:38.355Z,4.80
2018-12-11T22:03:07.654Z,7.77
2018-12-11T22:05:36.483Z,4.57
2018-12-11T22:08:05.229Z,6.43
2018-12-11T22:10:33.944Z,7.10
2018-12-11T22:13:02.647Z,5.10
2018-12-11T22:15:31.386Z,4.53
2018-12-11T22:18:00.087Z,5.50
2018-12-11T22:20:28.711Z,3.63
2018-12-11T22:22:57.541Z,3.80
2018-12-11T22:25:26.192Z,5.00
2018-12-11T22:27:54.866Z,6.03
2018-12-11T22:30:23.550Z,5.60
2018-12-11T22:32:52.351Z,3.93
2018-12-11T22:35:20.988Z,5.57
2018-12-11T22:37:49.660Z,5.17
2018-12-11T22:40:18.361Z,6.47
2018-12-11T22:42:47.005Z,4.90
2018-12-11T22:45:15.677Z,4.80
2018-12-11T22:47:44.367Z,6.27
2018-12-11T22:50:13.048Z,8.33
2018-12-11T22:52:41.732Z,3.80
2018-12-11T22:55:11.649Z,6.67
2018-12-11T22:57:40.337Z,4.80
2018-12-11T23:00:11.278Z,4.83
2018-12-11T23:02:40.931Z,4.83
2018-12-11T23:05:09.672Z,4.67
2018-12-11T23:07:38.312Z,6.23
2018-12-11T23:10:07.338Z,3.73
2018-12-11T23:12:36.790Z,3.63
2018-12-11T23:15:06.603Z,3.60
2018-12-11T23:17:35.345Z,3.87
2018-12-11T23:20:04.750Z,3.77
2018-12-11T23:22:33.444Z,5.63
2018-12-11T23:25:02.137Z,3.47
2018-12-11T23:27:30.846Z,4.77
2018-12-11T23:29:59.483Z,3.50
2018-12-11T23:32:28.172Z,4.47
2018-12-11T23:34:56.807Z,3.97
2018-12-11T23:37:25.477Z,3.33
2018-12-11T23:39:54.117Z,3.80
2018-12-11T23:42:22.886Z,7.60
2018-12-11T23:44:51.539Z,3.50
2018-12-11T23:47:20.323Z,2.30
2018-12-11T23:49:49.014Z,4.27
2018-12-11T23:52:17.660Z,4.37
2018-12-11T23:54:46.353Z,3.20
2018-12-11T23:57:15.022Z,5.57
2018-12-11T23:59:43.658Z,3.17
